^^
Daily Summary for May 05, 2021 Units:  English    Metric   Both
Daily Weekly Monthly Yearly Custom
  High: Low: Average:
Temperature: 91.0 °F 63.0 °F 77.5 °F
Dew Point: 51.0 °F 42.0 °F 45.6 °F
Humidity: 52% 19% 35%
Wind Speed: 13mph 0mph 1.5mph
Wind Gust: 13mph - -
Wind- - SE
Pressure: 30.0 in 29.9 in -
Precipitation: 0.000 in    
Historical Graphs
 
 
Tabular Data for May 05, 2021
Time Temperature Dew Point Pressure Wind Wind Speed Wind Gust Humidity Rainfall Rate (Hourly) solar
16:04 91.0 °F 44.0 °F 29.9 in ENE 4 mph 1 mph 20% 0.000 in 659.00 W/m2
16:09 91.0 °F 45.0 °F 29.9 in ENE 4 mph 7 mph 21% 0.000 in 656.00 W/m2
16:14 91.0 °F 44.0 °F 29.9 in ESE 9 mph 5 mph 20% 0.000 in 642.00 W/m2
16:19 91.0 °F 45.0 °F 29.9 in NNW 2 mph 9 mph 21% 0.000 in 628.00 W/m2
16:24 91.0 °F 45.0 °F 29.9 in East 9 mph 3 mph 21% 0.000 in 613.00 W/m2
16:29 91.0 °F 45.0 °F 29.9 in ESE 9 mph 9 mph 21% 0.000 in 596.00 W/m2
16:34 91.0 °F 43.0 °F 29.9 in East 13 mph 9 mph 19% 0.000 in 580.00 W/m2
16:39 91.0 °F 44.0 °F 29.9 in ENE 6 mph 13 mph 20% 0.000 in 564.00 W/m2
16:44 91.0 °F 43.0 °F 29.9 in SSE 6 mph 6 mph 19% 0.000 in 548.00 W/m2
16:49 91.0 °F 44.0 °F 29.9 in SE 2 mph 6 mph 20% 0.000 in 531.00 W/m2
16:54 91.0 °F 45.0 °F 29.9 in East 2 mph 2 mph 21% 0.000 in 517.00 W/m2
16:59 91.0 °F 45.0 °F 29.9 in NNE 2 mph 2 mph 21% 0.000 in 497.00 W/m2
17:04 91.0 °F 45.0 °F 29.9 in ESE 7 mph 4 mph 21% 0.000 in 482.00 W/m2
17:09 91.0 °F 44.0 °F 29.9 in ENE 11 mph 7 mph 20% 0.000 in 468.00 W/m2
17:14 91.0 °F 43.0 °F 29.9 in ENE 4 mph 10 mph 19% 0.000 in 450.00 W/m2
17:19 90.0 °F 44.0 °F 29.9 in ENE 4 mph 3 mph 20% 0.000 in 432.00 W/m2
17:24 90.0 °F 45.0 °F 29.9 in North 4 mph 3 mph 21% 0.000 in 417.00 W/m2
17:29 90.0 °F 44.0 °F 29.9 in ENE 2 mph 2 mph 20% 0.000 in 401.00 W/m2
17:34 90.0 °F 43.0 °F 29.9 in NE 4 mph 2 mph 20% 0.000 in 380.00 W/m2
17:39 90.0 °F 43.0 °F 29.9 in East 6 mph 3 mph 20% 0.000 in 334.00 W/m2
17:44 89.0 °F 43.0 °F 29.9 in ENE 9 mph 6 mph 20% 0.000 in 264.00 W/m2
17:49 88.0 °F 44.0 °F 29.9 in NW 4 mph 9 mph 22% 0.000 in 54.00 W/m2
17:54 88.0 °F 44.0 °F 29.9 in WNW 2 mph 3 mph 22% 0.000 in 49.00 W/m2
17:59 87.0 °F 45.0 °F 29.9 in WNW 4 mph 2 mph 23% 0.000 in 46.00 W/m2
18:04 87.0 °F 46.0 °F 29.9 in SSE 2 mph 3 mph 24% 0.000 in 42.00 W/m2
18:09 87.0 °F 44.0 °F 29.9 in South 2 mph 2 mph 23% 0.000 in 39.00 W/m2
18:14 86.0 °F 45.0 °F 29.9 in SE 2 mph 2 mph 24% 0.000 in 35.00 W/m2
18:19 86.0 °F 42.0 °F 29.9 in SE 2 mph 2 mph 22% 0.000 in 33.00 W/m2
18:24 85.0 °F 46.0 °F 29.9 in Calm   2 mph 26% 0.000 in 30.00 W/m2
18:29 85.0 °F 51.0 °F 29.9 in Calm     31% 0.000 in 28.00 W/m2
18:34 85.0 °F 51.0 °F 29.9 in SE 4 mph 2 mph 31% 0.000 in 26.00 W/m2
18:39 85.0 °F 45.0 °F 29.9 in SSE 2 mph 3 mph 25% 0.000 in 65.00 W/m2
18:44 84.0 °F 50.0 °F 29.9 in Calm   2 mph 30% 0.000 in 97.00 W/m2
18:49 84.0 °F 45.0 °F 29.9 in Calm     25% 0.000 in 88.00 W/m2
18:54 84.0 °F 48.0 °F 29.9 in Calm     29% 0.000 in 32.00 W/m2
18:59 84.0 °F 48.0 °F 29.9 in Calm     29% 0.000 in 19.00 W/m2
19:04 84.0 °F 49.0 °F 29.9 in Calm     30% 0.000 in 18.00 W/m2
19:09 83.0 °F 49.0 °F 29.9 in Calm     31% 0.000 in 16.00 W/m2
19:14 83.0 °F 48.0 °F 29.9 in Calm     30% 0.000 in 14.00 W/m2
19:19 82.0 °F 49.0 °F 29.9 in Calm     32% 0.000 in 12.00 W/m2
19:24 81.0 °F 49.0 °F 29.9 in Calm     33% 0.000 in 12.00 W/m2
19:29 81.0 °F 49.0 °F 29.9 in Calm     33% 0.000 in 11.00 W/m2
19:39 79.0 °F 49.0 °F 29.9 in Calm     35% 0.000 in 9.00 W/m2
19:44 78.0 °F 49.0 °F 30.0 in Calm     36% 0.000 in 7.00 W/m2
19:49 77.0 °F 47.0 °F 30.0 in Calm     35% 0.000 in 7.00 W/m2
19:54 77.0 °F 48.0 °F 30.0 in Calm     36% 0.000 in 5.00 W/m2
19:59 76.0 °F 48.0 °F 30.0 in Calm     37% 0.000 in 0.00 W/m2
20:04 76.0 °F 48.0 °F 30.0 in Calm     37% 0.000 in 0.00 W/m2
20:09 76.0 °F 46.0 °F 29.9 in Calm     36% 0.000 in 0.00 W/m2
20:14 75.0 °F 47.0 °F 29.9 in Calm     37% 0.000 in 0.00 W/m2
20:19 75.0 °F 47.0 °F 30.0 in Calm     37% 0.000 in 0.00 W/m2
20:24 74.0 °F 46.0 °F 30.0 in Calm     37% 0.000 in 0.00 W/m2
20:29 74.0 °F 47.0 °F 30.0 in Calm     39% 0.000 in 0.00 W/m2
20:34 73.0 °F 47.0 °F 30.0 in Calm     39% 0.000 in 0.00 W/m2
20:39 73.0 °F 46.0 °F 30.0 in Calm     39% 0.000 in 0.00 W/m2
20:44 73.0 °F 46.0 °F 30.0 in Calm     39% 0.000 in 0.00 W/m2
20:49 72.0 °F 47.0 °F 30.0 in Calm     41% 0.000 in 0.00 W/m2
20:54 72.0 °F 47.0 °F 30.0 in Calm     41% 0.000 in 0.00 W/m2
20:59 72.0 °F 46.0 °F 30.0 in Calm     40% 0.000 in 0.00 W/m2
21:04 72.0 °F 47.0 °F 30.0 in Calm     41% 0.000 in 0.00 W/m2
21:09 71.0 °F 47.0 °F 30.0 in Calm     42% 0.000 in 0.00 W/m2
21:14 71.0 °F 47.0 °F 30.0 in Calm     42% 0.000 in 0.00 W/m2
21:19 71.0 °F 46.0 °F 30.0 in Calm     42% 0.000 in 0.00 W/m2
21:24 70.0 °F 46.0 °F 30.0 in Calm     42% 0.000 in 0.00 W/m2
21:29 70.0 °F 46.0 °F 30.0 in Calm     42% 0.000 in 0.00 W/m2
21:34 70.0 °F 45.0 °F 30.0 in Calm     41% 0.000 in 0.00 W/m2
21:44 69.0 °F 45.0 °F 30.0 in Calm     42% 0.000 in 0.00 W/m2
21:49 69.0 °F 44.0 °F 30.0 in Calm     41% 0.000 in 0.00 W/m2
21:54 68.0 °F 45.0 °F 30.0 in Calm     43% 0.000 in 0.00 W/m2
21:59 68.0 °F 44.0 °F 30.0 in Calm     43% 0.000 in 0.00 W/m2
22:04 67.0 °F 43.0 °F 30.0 in Calm     41% 0.000 in 0.00 W/m2
22:09 67.0 °F 43.0 °F 30.0 in Calm     41% 0.000 in 0.00 W/m2
22:14 67.0 °F 42.0 °F 30.0 in Calm     41% 0.000 in 0.00 W/m2
22:19 67.0 °F 43.0 °F 30.0 in Calm     42% 0.000 in 0.00 W/m2
22:24 66.0 °F 44.0 °F 30.0 in Calm     45% 0.000 in 0.00 W/m2
22:29 66.0 °F 44.0 °F 30.0 in Calm     45% 0.000 in 0.00 W/m2
22:34 66.0 °F 45.0 °F 30.0 in Calm     47% 0.000 in 0.00 W/m2
22:39 66.0 °F 45.0 °F 30.0 in Calm     47% 0.000 in 0.00 W/m2
22:44 66.0 °F 45.0 °F 30.0 in Calm     48% 0.000 in 0.00 W/m2
22:49 65.0 °F 45.0 °F 30.0 in Calm     48% 0.000 in 0.00 W/m2
22:54 65.0 °F 45.0 °F 30.0 in Calm     49% 0.000 in 0.00 W/m2
22:59 65.0 °F 45.0 °F 30.0 in Calm     49% 0.000 in 0.00 W/m2
23:04 65.0 °F 45.0 °F 30.0 in Calm     49% 0.000 in 0.00 W/m2
23:09 65.0 °F 45.0 °F 30.0 in Calm     50% 0.000 in 0.00 W/m2
23:14 64.0 °F 45.0 °F 30.0 in Calm     49% 0.000 in 0.00 W/m2
23:19 64.0 °F 44.0 °F 30.0 in Calm     49% 0.000 in 0.00 W/m2
23:24 64.0 °F 44.0 °F 30.0 in Calm     49% 0.000 in 0.00 W/m2
23:29 64.0 °F 45.0 °F 30.0 in Calm     50% 0.000 in 0.00 W/m2
23:34 64.0 °F 45.0 °F 30.0 in Calm     50% 0.000 in 0.00 W/m2
23:39 64.0 °F 45.0 °F 30.0 in Calm     51% 0.000 in 0.00 W/m2
23:44 63.0 °F 45.0 °F 30.0 in Calm     51% 0.000 in 0.00 W/m2
23:49 63.0 °F 45.0 °F 30.0 in Calm     52% 0.000 in 0.00 W/m2
23:54 63.0 °F 45.0 °F 30.0 in Calm     51% 0.000 in 0.00 W/m2
23:59 63.0 °F 45.0 °F 30.0 in Calm     52% 0.000 in 0.00 W/m2
El Dorado Weather
Compliments of Weather Underground - 2 mb